グアム の空港の天気 - METARとTAF

グアム国際空港 ( PGUM / GUM ) - グアム ハガニア
飛行場実況気象(Metar)
観測時間01/29 16:54 ChST (01/29 06:54 UTC)
風向・風速東 8m/s 瞬間風速10m/s
視程10km以上
天気現象
少しの雲 雲底高度 610m
気温27.8℃
湿度77%
気圧1009.3hPa
METARPGUM 290654Z 09015G19 KT 10SM FEW020 28/23 A2983 RMK A02 SLP093 T02780233
過去の天気等 Google飛行場航空写真 Wunderground天気予報

過去48時間のMETAR

飛行場予報(TAF)
発表時間: 1/29 15:20 ChST (1/29 05:20 UTC)
予報対象時間: 29日16時 ChST ~ 30日22時 ChST
風向・風速東北東 8m/s 瞬間風速 12m/s
視程10km以上
全天の4割程度の雲 雲底高度 760m
29日22時 ChST から
風向・風速東 6m/s
視程10km以上
天気現象周辺でしゅう雨
少しの雲 雲底高度 610m
全天の4割程度の雲 雲底高度 910m
全天の8割程度の雲 雲底高度 3660m
PGUM 290520Z 2906/3012 07015G24KT P6SM SCT025
FM291200 08011KT P6SM VCSH FEW020 SCT030 BKN120